sensor_id;sensor_type;location;lat;lon;timestamp;P1;durP1;ratioP1;P2;durP2;ratioP2
76259;SDS011;65076;52.362;6.588;2023-04-25T00:03:59;13.00;;;3.08;;
76259;SDS011;65076;52.362;6.588;2023-04-25T00:08:30;11.43;;;3.08;;
76259;SDS011;65076;52.362;6.588;2023-04-25T00:12:59;14.68;;;3.40;;
76259;SDS011;65076;52.362;6.588;2023-04-25T00:17:29;11.75;;;2.90;;
76259;SDS011;65076;52.362;6.588;2023-04-25T00:21:58;11.45;;;3.65;;
76259;SDS011;65076;52.362;6.588;2023-04-25T00:26:29;13.50;;;2.83;;
76259;SDS011;65076;52.362;6.588;2023-04-25T00:30:58;12.35;;;2.45;;
76259;SDS011;65076;52.362;6.588;2023-04-25T00:35:27;16.58;;;3.70;;
76259;SDS011;65076;52.362;6.588;2023-04-25T00:39:57;8.98;;;2.55;;
76259;SDS011;65076;52.362;6.588;2023-04-25T00:44:30;13.57;;;2.72;;
76259;SDS011;65076;52.362;6.588;2023-04-25T00:48:59;9.70;;;3.53;;
76259;SDS011;65076;52.362;6.588;2023-04-25T00:53:29;14.60;;;3.78;;
76259;SDS011;65076;52.362;6.588;2023-04-25T00:58:00;12.68;;;2.80;;
76259;SDS011;65076;52.362;6.588;2023-04-25T01:02:32;10.77;;;2.53;;
76259;SDS011;65076;52.362;6.588;2023-04-25T01:07:03;15.77;;;2.78;;
76259;SDS011;65076;52.362;6.588;2023-04-25T01:11:32;9.48;;;3.17;;
76259;SDS011;65076;52.362;6.588;2023-04-25T01:16:02;12.02;;;3.20;;
76259;SDS011;65076;52.362;6.588;2023-04-25T01:20:33;13.88;;;2.78;;
76259;SDS011;65076;52.362;6.588;2023-04-25T01:25:04;8.45;;;2.63;;
76259;SDS011;65076;52.362;6.588;2023-04-25T01:29:34;13.82;;;2.80;;
76259;SDS011;65076;52.362;6.588;2023-04-25T01:34:03;19.40;;;3.45;;
76259;SDS011;65076;52.362;6.588;2023-04-25T01:38:34;10.15;;;2.60;;
76259;SDS011;65076;52.362;6.588;2023-04-25T01:43:03;8.02;;;3.00;;
76259;SDS011;65076;52.362;6.588;2023-04-25T01:47:33;9.48;;;2.75;;
76259;SDS011;65076;52.362;6.588;2023-04-25T01:52:03;10.10;;;2.33;;
76259;SDS011;65076;52.362;6.588;2023-04-25T01:56:36;9.50;;;2.55;;
76259;SDS011;65076;52.362;6.588;2023-04-25T02:01:05;9.32;;;2.42;;
76259;SDS011;65076;52.362;6.588;2023-04-25T02:05:35;10.40;;;2.75;;
76259;SDS011;65076;52.362;6.588;2023-04-25T02:10:05;9.80;;;2.85;;
76259;SDS011;65076;52.362;6.588;2023-04-25T02:14:35;11.05;;;2.35;;
76259;SDS011;65076;52.362;6.588;2023-04-25T02:19:06;8.75;;;2.78;;
76259;SDS011;65076;52.362;6.588;2023-04-25T02:23:36;12.63;;;2.53;;
76259;SDS011;65076;52.362;6.588;2023-04-25T02:28:05;11.60;;;3.30;;
76259;SDS011;65076;52.362;6.588;2023-04-25T02:32:35;8.23;;;2.92;;
76259;SDS011;65076;52.362;6.588;2023-04-25T02:37:05;7.28;;;2.33;;
76259;SDS011;65076;52.362;6.588;2023-04-25T02:41:34;12.63;;;2.63;;
76259;SDS011;65076;52.362;6.588;2023-04-25T02:46:03;10.05;;;2.50;;
76259;SDS011;65076;52.362;6.588;2023-04-25T02:50:34;10.93;;;2.90;;
76259;SDS011;65076;52.362;6.588;2023-04-25T02:55:03;9.18;;;2.15;;
76259;SDS011;65076;52.362;6.588;2023-04-25T02:59:33;7.80;;;2.50;;
76259;SDS011;65076;52.362;6.588;2023-04-25T03:04:02;6.47;;;2.03;;
76259;SDS011;65076;52.362;6.588;2023-04-25T03:08:33;8.52;;;2.72;;
76259;SDS011;65076;52.362;6.588;2023-04-25T03:13:02;8.23;;;2.30;;
76259;SDS011;65076;52.362;6.588;2023-04-25T03:17:31;7.13;;;1.88;;
76259;SDS011;65076;52.362;6.588;2023-04-25T03:22:01;7.20;;;2.00;;
76259;SDS011;65076;52.362;6.588;2023-04-25T03:26:31;5.35;;;1.95;;
76259;SDS011;65076;52.362;6.588;2023-04-25T03:31:00;8.68;;;2.25;;
76259;SDS011;65076;52.362;6.588;2023-04-25T03:35:30;6.00;;;1.83;;
76259;SDS011;65076;52.362;6.588;2023-04-25T03:39:59;6.43;;;2.20;;
76259;SDS011;65076;52.362;6.588;2023-04-25T03:44:30;7.75;;;2.20;;
76259;SDS011;65076;52.362;6.588;2023-04-25T03:48:59;8.10;;;2.22;;
76259;SDS011;65076;52.362;6.588;2023-04-25T03:53:29;9.30;;;2.10;;
76259;SDS011;65076;52.362;6.588;2023-04-25T03:57:58;6.72;;;2.22;;
76259;SDS011;65076;52.362;6.588;2023-04-25T04:02:28;10.52;;;2.20;;
76259;SDS011;65076;52.362;6.588;2023-04-25T04:06:58;6.68;;;2.88;;
76259;SDS011;65076;52.362;6.588;2023-04-25T04:11:27;4.45;;;2.40;;
76259;SDS011;65076;52.362;6.588;2023-04-25T04:15:57;7.38;;;1.75;;
76259;SDS011;65076;52.362;6.588;2023-04-25T04:20:30;9.45;;;2.08;;
76259;SDS011;65076;52.362;6.588;2023-04-25T04:24:59;6.32;;;1.85;;
76259;SDS011;65076;52.362;6.588;2023-04-25T04:29:29;8.82;;;2.35;;
76259;SDS011;65076;52.362;6.588;2023-04-25T04:33:58;6.32;;;1.95;;
76259;SDS011;65076;52.362;6.588;2023-04-25T04:38:30;6.95;;;2.30;;
76259;SDS011;65076;52.362;6.588;2023-04-25T04:42:59;6.85;;;1.83;;
76259;SDS011;65076;52.362;6.588;2023-04-25T04:47:30;6.40;;;1.90;;
76259;SDS011;65076;52.362;6.588;2023-04-25T04:51:59;5.55;;;1.95;;
76259;SDS011;65076;52.362;6.588;2023-04-25T04:56:30;6.80;;;2.10;;
76259;SDS011;65076;52.362;6.588;2023-04-25T05:00:59;8.40;;;2.25;;
76259;SDS011;65076;52.362;6.588;2023-04-25T05:05:29;9.20;;;2.38;;
76259;SDS011;65076;52.362;6.588;2023-04-25T05:09:58;7.78;;;1.95;;
76259;SDS011;65076;52.362;6.588;2023-04-25T05:14:29;9.00;;;2.13;;
76259;SDS011;65076;52.362;6.588;2023-04-25T05:18:58;8.70;;;1.88;;
76259;SDS011;65076;52.362;6.588;2023-04-25T05:23:27;3.40;;;1.40;;
76259;SDS011;65076;52.362;6.588;2023-04-25T05:27:57;4.13;;;1.50;;
76259;SDS011;65076;52.362;6.588;2023-04-25T05:32:28;9.50;;;2.00;;
76259;SDS011;65076;52.362;6.588;2023-04-25T05:36:57;4.80;;;1.60;;
76259;SDS011;65076;52.362;6.588;2023-04-25T05:41:26;10.25;;;1.67;;
76259;SDS011;65076;52.362;6.588;2023-04-25T05:45:55;7.00;;;1.45;;
76259;SDS011;65076;52.362;6.588;2023-04-25T05:50:26;5.93;;;2.00;;
76259;SDS011;65076;52.362;6.588;2023-04-25T05:54:55;6.60;;;2.35;;
76259;SDS011;65076;52.362;6.588;2023-04-25T05:59:25;9.57;;;2.20;;
76259;SDS011;65076;52.362;6.588;2023-04-25T06:03:54;9.48;;;1.77;;
76259;SDS011;65076;52.362;6.588;2023-04-25T06:08:25;7.15;;;2.05;;
76259;SDS011;65076;52.362;6.588;2023-04-25T06:12:55;10.45;;;2.00;;
76259;SDS011;65076;52.362;6.588;2023-04-25T06:17:24;5.65;;;1.83;;
76259;SDS011;65076;52.362;6.588;2023-04-25T06:21:53;8.88;;;2.33;;
76259;SDS011;65076;52.362;6.588;2023-04-25T06:26:24;8.73;;;1.67;;
76259;SDS011;65076;52.362;6.588;2023-04-25T06:30:53;7.97;;;2.15;;
76259;SDS011;65076;52.362;6.588;2023-04-25T06:35:22;8.38;;;1.65;;
76259;SDS011;65076;52.362;6.588;2023-04-25T06:39:51;6.68;;;1.40;;
76259;SDS011;65076;52.362;6.588;2023-04-25T06:44:22;5.40;;;1.27;;
76259;SDS011;65076;52.362;6.588;2023-04-25T06:48:51;9.32;;;1.50;;
76259;SDS011;65076;52.362;6.588;2023-04-25T06:53:21;6.70;;;1.42;;
76259;SDS011;65076;52.362;6.588;2023-04-25T06:57:50;6.15;;;1.40;;
76259;SDS011;65076;52.362;6.588;2023-04-25T07:02:20;4.65;;;1.20;;
76259;SDS011;65076;52.362;6.588;2023-04-25T07:06:50;5.70;;;1.60;;
76259;SDS011;65076;52.362;6.588;2023-04-25T07:11:19;5.25;;;1.25;;
76259;SDS011;65076;52.362;6.588;2023-04-25T07:15:50;5.63;;;2.03;;
76259;SDS011;65076;52.362;6.588;2023-04-25T07:20:21;4.35;;;1.23;;
76259;SDS011;65076;52.362;6.588;2023-04-25T07:24:52;6.70;;;1.33;;
76259;SDS011;65076;52.362;6.588;2023-04-25T07:29:21;6.30;;;1.73;;
76259;SDS011;65076;52.362;6.588;2023-04-25T07:33:51;4.53;;;1.00;;
76259;SDS011;65076;52.362;6.588;2023-04-25T07:38:21;3.17;;;1.17;;
76259;SDS011;65076;52.362;6.588;2023-04-25T07:42:50;3.65;;;1.10;;
76259;SDS011;65076;52.362;6.588;2023-04-25T07:47:20;7.82;;;1.30;;
76259;SDS011;65076;52.362;6.588;2023-04-25T07:51:49;8.95;;;1.42;;
76259;SDS011;65076;52.362;6.588;2023-04-25T07:56:20;4.95;;;1.60;;
76259;SDS011;65076;52.362;6.588;2023-04-25T08:00:49;2.72;;;0.80;;
76259;SDS011;65076;52.362;6.588;2023-04-25T08:05:18;3.85;;;0.98;;
76259;SDS011;65076;52.362;6.588;2023-04-25T08:09:49;5.75;;;1.17;;
76259;SDS011;65076;52.362;6.588;2023-04-25T08:14:19;4.40;;;1.00;;
76259;SDS011;65076;52.362;6.588;2023-04-25T08:18:49;4.70;;;0.90;;
76259;SDS011;65076;52.362;6.588;2023-04-25T08:23:19;4.35;;;1.27;;
76259;SDS011;65076;52.362;6.588;2023-04-25T08:27:48;6.85;;;1.30;;
76259;SDS011;65076;52.362;6.588;2023-04-25T08:32:19;4.10;;;0.75;;
76259;SDS011;65076;52.362;6.588;2023-04-25T08:36:48;4.70;;;1.23;;
76259;SDS011;65076;52.362;6.588;2023-04-25T08:41:20;3.25;;;0.85;;
76259;SDS011;65076;52.362;6.588;2023-04-25T08:45:51;3.95;;;1.25;;
76259;SDS011;65076;52.362;6.588;2023-04-25T08:50:25;6.43;;;1.10;;
76259;SDS011;65076;52.362;6.588;2023-04-25T08:54:55;2.55;;;1.08;;
76259;SDS011;65076;52.362;6.588;2023-04-25T08:59:28;3.80;;;1.05;;
76259;SDS011;65076;52.362;6.588;2023-04-25T09:03:58;3.05;;;1.00;;
76259;SDS011;65076;52.362;6.588;2023-04-25T09:08:28;6.65;;;0.88;;
76259;SDS011;65076;52.362;6.588;2023-04-25T09:13:03;7.43;;;0.80;;
76259;SDS011;65076;52.362;6.588;2023-04-25T09:17:47;4.10;;;0.77;;
76259;SDS011;65076;52.362;6.588;2023-04-25T09:22:23;2.25;;;1.00;;
76259;SDS011;65076;52.362;6.588;2023-04-25T09:26:54;3.95;;;1.10;;
76259;SDS011;65076;52.362;6.588;2023-04-25T09:31:23;4.57;;;0.93;;
76259;SDS011;65076;52.362;6.588;2023-04-25T09:35:53;1.70;;;0.80;;
76259;SDS011;65076;52.362;6.588;2023-04-25T09:40:24;2.53;;;0.90;;
76259;SDS011;65076;52.362;6.588;2023-04-25T09:44:56;7.40;;;1.20;;
76259;SDS011;65076;52.362;6.588;2023-04-25T09:49:26;5.70;;;2.22;;
76259;SDS011;65076;52.362;6.588;2023-04-25T09:53:55;4.10;;;0.80;;
76259;SDS011;65076;52.362;6.588;2023-04-25T09:58:24;4.63;;;0.95;;
76259;SDS011;65076;52.362;6.588;2023-04-25T10:02:55;2.90;;;0.93;;
76259;SDS011;65076;52.362;6.588;2023-04-25T10:07:29;3.30;;;0.70;;
76259;SDS011;65076;52.362;6.588;2023-04-25T10:12:02;3.75;;;1.00;;
76259;SDS011;65076;52.362;6.588;2023-04-25T10:16:33;3.78;;;1.00;;
76259;SDS011;65076;52.362;6.588;2023-04-25T10:21:05;1.40;;;0.40;;
76259;SDS011;65076;52.362;6.588;2023-04-25T10:25:37;3.10;;;0.90;;
76259;SDS011;65076;52.362;6.588;2023-04-25T10:30:07;3.20;;;1.20;;
76259;SDS011;65076;52.362;6.588;2023-04-25T10:34:39;2.88;;;0.70;;
76259;SDS011;65076;52.362;6.588;2023-04-25T10:39:10;4.70;;;0.90;;
76259;SDS011;65076;52.362;6.588;2023-04-25T10:43:39;3.72;;;0.88;;
76259;SDS011;65076;52.362;6.588;2023-04-25T10:48:24;2.25;;;0.50;;
76259;SDS011;65076;52.362;6.588;2023-04-25T10:53:13;2.50;;;0.60;;
76259;SDS011;65076;52.362;6.588;2023-04-25T10:57:47;2.13;;;0.63;;
76259;SDS011;65076;52.362;6.588;2023-04-25T11:02:17;4.90;;;0.60;;
76259;SDS011;65076;52.362;6.588;2023-04-25T11:06:51;2.17;;;0.70;;
76259;SDS011;65076;52.362;6.588;2023-04-25T11:11:26;3.63;;;0.55;;
76259;SDS011;65076;52.362;6.588;2023-04-25T11:15:55;4.55;;;0.60;;
76259;SDS011;65076;52.362;6.588;2023-04-25T11:20:25;3.20;;;0.82;;
76259;SDS011;65076;52.362;6.588;2023-04-25T11:24:56;1.90;;;0.57;;
76259;SDS011;65076;52.362;6.588;2023-04-25T11:29:27;4.82;;;0.93;;
76259;SDS011;65076;52.362;6.588;2023-04-25T11:33:57;2.38;;;0.95;;
76259;SDS011;65076;52.362;6.588;2023-04-25T11:38:27;3.58;;;0.90;;
76259;SDS011;65076;52.362;6.588;2023-04-25T11:42:59;6.07;;;0.80;;
76259;SDS011;65076;52.362;6.588;2023-04-25T11:47:30;1.63;;;0.60;;
76259;SDS011;65076;52.362;6.588;2023-04-25T11:52:06;1.55;;;0.40;;
76259;SDS011;65076;52.362;6.588;2023-04-25T11:56:35;1.98;;;0.80;;
76259;SDS011;65076;52.362;6.588;2023-04-25T12:01:05;2.22;;;0.65;;
76259;SDS011;65076;52.362;6.588;2023-04-25T12:05:36;3.33;;;0.70;;
76259;SDS011;65076;52.362;6.588;2023-04-25T12:10:09;5.97;;;0.90;;
76259;SDS011;65076;52.362;6.588;2023-04-25T12:14:50;4.03;;;0.77;;
76259;SDS011;65076;52.362;6.588;2023-04-25T12:19:20;3.33;;;1.17;;
76259;SDS011;65076;52.362;6.588;2023-04-25T12:23:51;2.55;;;1.10;;
76259;SDS011;65076;52.362;6.588;2023-04-25T12:28:21;4.68;;;0.82;;
76259;SDS011;65076;52.362;6.588;2023-04-25T12:32:51;1.52;;;0.73;;
76259;SDS011;65076;52.362;6.588;2023-04-25T12:37:21;3.80;;;0.60;;
76259;SDS011;65076;52.362;6.588;2023-04-25T12:46:25;4.18;;;0.65;;
76259;SDS011;65076;52.362;6.588;2023-04-25T12:50:54;3.30;;;0.50;;
76259;SDS011;65076;52.362;6.588;2023-04-25T12:55:23;1.63;;;0.50;;
76259;SDS011;65076;52.362;6.588;2023-04-25T12:59:54;2.25;;;0.60;;
76259;SDS011;65076;52.362;6.588;2023-04-25T13:04:25;1.05;;;0.47;;
76259;SDS011;65076;52.362;6.588;2023-04-25T13:08:56;2.10;;;0.40;;
76259;SDS011;65076;52.362;6.588;2023-04-25T13:13:26;1.52;;;0.68;;
76259;SDS011;65076;52.362;6.588;2023-04-25T13:17:56;4.47;;;0.80;;
76259;SDS011;65076;52.362;6.588;2023-04-25T13:22:26;5.75;;;0.80;;
76259;SDS011;65076;52.362;6.588;2023-04-25T13:26:56;2.55;;;0.65;;
76259;SDS011;65076;52.362;6.588;2023-04-25T13:31:26;5.57;;;0.98;;
76259;SDS011;65076;52.362;6.588;2023-04-25T13:35:57;1.65;;;0.57;;
76259;SDS011;65076;52.362;6.588;2023-04-25T13:40:26;2.05;;;0.60;;
76259;SDS011;65076;52.362;6.588;2023-04-25T13:44:56;2.40;;;1.13;;
76259;SDS011;65076;52.362;6.588;2023-04-25T13:49:26;1.73;;;0.50;;
76259;SDS011;65076;52.362;6.588;2023-04-25T13:53:59;1.42;;;0.60;;
76259;SDS011;65076;52.362;6.588;2023-04-25T13:58:28;1.33;;;0.40;;
76259;SDS011;65076;52.362;6.588;2023-04-25T14:02:58;8.98;;;1.00;;
76259;SDS011;65076;52.362;6.588;2023-04-25T14:07:27;1.48;;;0.50;;
76259;SDS011;65076;52.362;6.588;2023-04-25T14:11:58;1.80;;;0.40;;
76259;SDS011;65076;52.362;6.588;2023-04-25T14:16:27;0.60;;;0.30;;
76259;SDS011;65076;52.362;6.588;2023-04-25T14:20:56;4.10;;;0.52;;
76259;SDS011;65076;52.362;6.588;2023-04-25T14:25:26;2.60;;;0.70;;
76259;SDS011;65076;52.362;6.588;2023-04-25T14:29:56;2.47;;;0.90;;
76259;SDS011;65076;52.362;6.588;2023-04-25T14:34:26;7.13;;;0.63;;
76259;SDS011;65076;52.362;6.588;2023-04-25T14:38:56;3.55;;;0.98;;
76259;SDS011;65076;52.362;6.588;2023-04-25T14:43:26;4.70;;;0.85;;
76259;SDS011;65076;52.362;6.588;2023-04-25T14:47:57;3.40;;;0.60;;
76259;SDS011;65076;52.362;6.588;2023-04-25T14:52:27;1.63;;;0.40;;
76259;SDS011;65076;52.362;6.588;2023-04-25T14:56:57;4.93;;;1.10;;
76259;SDS011;65076;52.362;6.588;2023-04-25T15:01:26;4.03;;;0.75;;
76259;SDS011;65076;52.362;6.588;2023-04-25T15:05:58;4.22;;;1.00;;
76259;SDS011;65076;52.362;6.588;2023-04-25T15:10:27;2.00;;;0.65;;
76259;SDS011;65076;52.362;6.588;2023-04-25T15:14:57;3.90;;;0.80;;
76259;SDS011;65076;52.362;6.588;2023-04-25T15:19:26;1.77;;;0.75;;
76259;SDS011;65076;52.362;6.588;2023-04-25T15:23:57;3.35;;;0.60;;
76259;SDS011;65076;52.362;6.588;2023-04-25T15:28:26;1.77;;;0.60;;
76259;SDS011;65076;52.362;6.588;2023-04-25T15:32:55;3.00;;;1.10;;
76259;SDS011;65076;52.362;6.588;2023-04-25T15:37:24;2.08;;;0.88;;
76259;SDS011;65076;52.362;6.588;2023-04-25T15:41:55;1.77;;;0.65;;
76259;SDS011;65076;52.362;6.588;2023-04-25T15:46:24;2.08;;;0.50;;
76259;SDS011;65076;52.362;6.588;2023-04-25T15:50:53;2.72;;;0.80;;
76259;SDS011;65076;52.362;6.588;2023-04-25T15:55:23;1.33;;;0.60;;
76259;SDS011;65076;52.362;6.588;2023-04-25T15:59:53;3.63;;;1.00;;
76259;SDS011;65076;52.362;6.588;2023-04-25T16:04:23;4.90;;;1.55;;
76259;SDS011;65076;52.362;6.588;2023-04-25T16:08:52;3.92;;;0.70;;
76259;SDS011;65076;52.362;6.588;2023-04-25T16:13:22;5.70;;;2.63;;
76259;SDS011;65076;52.362;6.588;2023-04-25T16:17:53;2.63;;;1.10;;
76259;SDS011;65076;52.362;6.588;2023-04-25T16:22:23;4.72;;;1.33;;
76259;SDS011;65076;52.362;6.588;2023-04-25T16:26:52;3.90;;;0.57;;
76259;SDS011;65076;52.362;6.588;2023-04-25T16:31:21;4.50;;;0.95;;
76259;SDS011;65076;52.362;6.588;2023-04-25T16:35:52;4.88;;;1.25;;
76259;SDS011;65076;52.362;6.588;2023-04-25T16:40:21;2.85;;;0.77;;
76259;SDS011;65076;52.362;6.588;2023-04-25T16:44:51;4.68;;;1.02;;
76259;SDS011;65076;52.362;6.588;2023-04-25T16:49:20;1.77;;;0.70;;
76259;SDS011;65076;52.362;6.588;2023-04-25T16:53:50;3.45;;;1.08;;
76259;SDS011;65076;52.362;6.588;2023-04-25T16:58:20;6.47;;;1.00;;
76259;SDS011;65076;52.362;6.588;2023-04-25T17:02:49;2.50;;;0.73;;
76259;SDS011;65076;52.362;6.588;2023-04-25T17:07:20;3.80;;;0.90;;
76259;SDS011;65076;52.362;6.588;2023-04-25T17:11:50;1.05;;;0.55;;
76259;SDS011;65076;52.362;6.588;2023-04-25T17:16:20;4.70;;;1.48;;
76259;SDS011;65076;52.362;6.588;2023-04-25T17:20:50;3.17;;;1.40;;
76259;SDS011;65076;52.362;6.588;2023-04-25T17:25:19;2.08;;;0.90;;
76259;SDS011;65076;52.362;6.588;2023-04-25T17:29:50;2.25;;;1.20;;
76259;SDS011;65076;52.362;6.588;2023-04-25T17:34:22;5.60;;;1.15;;
76259;SDS011;65076;52.362;6.588;2023-04-25T17:38:51;5.00;;;0.80;;
76259;SDS011;65076;52.362;6.588;2023-04-25T17:43:21;2.55;;;0.80;;
76259;SDS011;65076;52.362;6.588;2023-04-25T17:47:51;3.08;;;0.65;;
76259;SDS011;65076;52.362;6.588;2023-04-25T17:52:22;4.82;;;0.93;;
76259;SDS011;65076;52.362;6.588;2023-04-25T17:56:52;3.20;;;1.10;;
76259;SDS011;65076;52.362;6.588;2023-04-25T18:01:22;4.38;;;0.85;;
76259;SDS011;65076;52.362;6.588;2023-04-25T18:05:53;4.65;;;0.93;;
76259;SDS011;65076;52.362;6.588;2023-04-25T18:10:22;3.60;;;0.90;;
76259;SDS011;65076;52.362;6.588;2023-04-25T18:14:53;2.38;;;1.08;;
76259;SDS011;65076;52.362;6.588;2023-04-25T18:19:22;3.08;;;0.80;;
76259;SDS011;65076;52.362;6.588;2023-04-25T18:23:53;5.20;;;1.10;;
76259;SDS011;65076;52.362;6.588;2023-04-25T18:28:23;4.65;;;1.30;;
76259;SDS011;65076;52.362;6.588;2023-04-25T18:32:54;5.75;;;1.52;;
76259;SDS011;65076;52.362;6.588;2023-04-25T18:37:24;5.90;;;1.20;;
76259;SDS011;65076;52.362;6.588;2023-04-25T18:41:54;4.88;;;1.35;;
76259;SDS011;65076;52.362;6.588;2023-04-25T18:46:27;3.10;;;0.73;;
76259;SDS011;65076;52.362;6.588;2023-04-25T18:50:56;4.82;;;0.95;;
76259;SDS011;65076;52.362;6.588;2023-04-25T18:55:27;5.50;;;1.35;;
76259;SDS011;65076;52.362;6.588;2023-04-25T18:59:58;4.65;;;1.25;;
76259;SDS011;65076;52.362;6.588;2023-04-25T19:04:28;4.38;;;1.30;;
76259;SDS011;65076;52.362;6.588;2023-04-25T19:08:57;5.28;;;1.80;;
76259;SDS011;65076;52.362;6.588;2023-04-25T19:13:45;4.05;;;1.13;;
76259;SDS011;65076;52.362;6.588;2023-04-25T19:18:16;6.03;;;1.38;;
76259;SDS011;65076;52.362;6.588;2023-04-25T19:22:46;4.93;;;1.23;;
76259;SDS011;65076;52.362;6.588;2023-04-25T19:27:34;3.60;;;1.42;;
76259;SDS011;65076;52.362;6.588;2023-04-25T19:32:04;5.72;;;1.73;;
76259;SDS011;65076;52.362;6.588;2023-04-25T19:36:36;4.30;;;1.52;;
76259;SDS011;65076;52.362;6.588;2023-04-25T19:41:05;5.10;;;1.60;;
76259;SDS011;65076;52.362;6.588;2023-04-25T19:45:35;13.77;;;2.35;;
76259;SDS011;65076;52.362;6.588;2023-04-25T19:50:05;9.68;;;2.40;;
76259;SDS011;65076;52.362;6.588;2023-04-25T19:54:41;4.75;;;1.60;;
76259;SDS011;65076;52.362;6.588;2023-04-25T19:59:10;4.95;;;1.50;;
76259;SDS011;65076;52.362;6.588;2023-04-25T20:03:42;5.80;;;1.50;;
76259;SDS011;65076;52.362;6.588;2023-04-25T20:08:11;4.82;;;1.33;;
76259;SDS011;65076;52.362;6.588;2023-04-25T20:12:43;6.65;;;1.63;;
76259;SDS011;65076;52.362;6.588;2023-04-25T20:17:13;2.83;;;1.30;;
76259;SDS011;65076;52.362;6.588;2023-04-25T20:21:42;3.13;;;1.38;;
76259;SDS011;65076;52.362;6.588;2023-04-25T20:26:11;8.10;;;1.48;;
76259;SDS011;65076;52.362;6.588;2023-04-25T20:30:42;2.97;;;1.58;;
76259;SDS011;65076;52.362;6.588;2023-04-25T20:35:11;6.80;;;1.70;;
76259;SDS011;65076;52.362;6.588;2023-04-25T20:39:41;9.20;;;2.00;;
76259;SDS011;65076;52.362;6.588;2023-04-25T20:44:11;3.55;;;1.73;;
76259;SDS011;65076;52.362;6.588;2023-04-25T20:48:42;5.35;;;1.92;;
76259;SDS011;65076;52.362;6.588;2023-04-25T20:53:12;4.80;;;1.58;;
76259;SDS011;65076;52.362;6.588;2023-04-25T20:57:41;8.70;;;1.67;;
76259;SDS011;65076;52.362;6.588;2023-04-25T21:02:11;7.28;;;1.88;;
76259;SDS011;65076;52.362;6.588;2023-04-25T21:06:43;3.25;;;1.70;;
76259;SDS011;65076;52.362;6.588;2023-04-25T21:11:12;3.63;;;1.48;;
76259;SDS011;65076;52.362;6.588;2023-04-25T21:15:42;5.93;;;2.80;;
76259;SDS011;65076;52.362;6.588;2023-04-25T21:20:13;5.18;;;1.40;;
76259;SDS011;65076;52.362;6.588;2023-04-25T21:24:43;4.72;;;1.90;;
76259;SDS011;65076;52.362;6.588;2023-04-25T21:29:13;5.28;;;1.27;;
76259;SDS011;65076;52.362;6.588;2023-04-25T21:33:42;2.60;;;1.02;;
76259;SDS011;65076;52.362;6.588;2023-04-25T21:38:12;2.85;;;1.23;;
76259;SDS011;65076;52.362;6.588;2023-04-25T21:42:44;2.35;;;1.10;;
76259;SDS011;65076;52.362;6.588;2023-04-25T21:47:14;3.78;;;1.30;;
76259;SDS011;65076;52.362;6.588;2023-04-25T21:51:43;3.45;;;1.25;;
76259;SDS011;65076;52.362;6.588;2023-04-25T21:56:13;3.58;;;1.50;;
76259;SDS011;65076;52.362;6.588;2023-04-25T22:00:45;5.10;;;1.30;;
76259;SDS011;65076;52.362;6.588;2023-04-25T22:05:14;6.07;;;1.40;;
76259;SDS011;65076;52.362;6.588;2023-04-25T22:09:43;4.38;;;1.23;;
76259;SDS011;65076;52.362;6.588;2023-04-25T22:14:13;4.88;;;1.45;;
76259;SDS011;65076;52.362;6.588;2023-04-25T22:18:43;7.13;;;1.90;;
76259;SDS011;65076;52.362;6.588;2023-04-25T22:23:13;6.72;;;1.50;;
76259;SDS011;65076;52.362;6.588;2023-04-25T22:27:42;6.68;;;1.90;;
76259;SDS011;65076;52.362;6.588;2023-04-25T22:32:11;6.95;;;1.95;;
76259;SDS011;65076;52.362;6.588;2023-04-25T22:36:42;2.55;;;1.40;;
76259;SDS011;65076;52.362;6.588;2023-04-25T22:41:12;4.88;;;1.67;;
76259;SDS011;65076;52.362;6.588;2023-04-25T22:45:41;3.28;;;1.42;;
76259;SDS011;65076;52.362;6.588;2023-04-25T22:50:10;4.20;;;2.05;;
76259;SDS011;65076;52.362;6.588;2023-04-25T22:54:41;5.15;;;2.30;;
76259;SDS011;65076;52.362;6.588;2023-04-25T22:59:11;4.00;;;1.67;;
76259;SDS011;65076;52.362;6.588;2023-04-25T23:03:44;4.53;;;1.98;;
76259;SDS011;65076;52.362;6.588;2023-04-25T23:08:13;3.33;;;1.85;;
76259;SDS011;65076;52.362;6.588;2023-04-25T23:12:45;6.70;;;2.53;;
76259;SDS011;65076;52.362;6.588;2023-04-25T23:17:15;5.78;;;1.98;;
76259;SDS011;65076;52.362;6.588;2023-04-25T23:21:44;6.90;;;2.33;;
76259;SDS011;65076;52.362;6.588;2023-04-25T23:26:13;6.75;;;2.30;;
76259;SDS011;65076;52.362;6.588;2023-04-25T23:30:44;5.57;;;2.60;;
76259;SDS011;65076;52.362;6.588;2023-04-25T23:35:13;8.35;;;2.25;;
76259;SDS011;65076;52.362;6.588;2023-04-25T23:39:48;7.05;;;2.40;;
76259;SDS011;65076;52.362;6.588;2023-04-25T23:44:17;8.82;;;4.75;;
76259;SDS011;65076;52.362;6.588;2023-04-25T23:48:48;9.38;;;2.58;;
76259;SDS011;65076;52.362;6.588;2023-04-25T23:53:17;6.93;;;2.15;;
76259;SDS011;65076;52.362;6.588;2023-04-25T23:57:47;3.10;;;1.95;;
